Time,TemperatureF,DewpointF,PressureIn,WindDirection,WindDirectionDegrees,WindSpeedMPH,WindSpeedGustMPH,Humidity,HourlyPrecipIn,Conditions,Clouds,dailyrainin,SoftwareType,DateUTC
2013-03-11 00:00:00,37.8,27.8,30.16,SE,126,0.0,1.0,67,0.00,,,0.00,Wunderground v.1.15,2013-03-11 04:00:00,
2013-03-11 00:03:00,37.5,28.2,30.16,East,100,1.0,1.0,69,0.00,,,0.00,Wunderground v.1.15,2013-03-11 04:03:00,
2013-03-11 00:05:00,37.2,28.7,30.16,ESE,103,1.0,1.0,71,0.00,,,0.00,Wunderground v.1.15,2013-03-11 04:05:00,
2013-03-11 00:09:00,36.3,28.5,30.16,ESE,103,0.0,0.0,73,0.00,,,0.00,Wunderground v.1.15,2013-03-11 04:09:00,
2013-03-11 00:14:00,36.1,27.9,30.16,East,84,1.0,1.0,72,0.00,,,0.00,Wunderground v.1.15,2013-03-11 04:14:00,
2013-03-11 00:19:00,36.3,28.8,30.16,SE,125,1.0,1.0,74,0.00,,,0.00,Wunderground v.1.15,2013-03-11 04:19:00,
2013-03-11 00:24:00,35.9,28.1,30.17,NE,52,0.0,1.0,73,0.00,,,0.00,Wunderground v.1.15,2013-03-11 04:24:00,
2013-03-11 00:30:00,35.1,28.3,30.17,SE,135,0.0,0.0,76,0.00,,,0.00,Wunderground v.1.15,2013-03-11 04:30:00,
2013-03-11 00:36:00,34.5,28.7,30.17,SE,136,0.0,1.0,79,0.00,,,0.00,Wunderground v.1.15,2013-03-11 04:36:00,
2013-03-11 00:42:00,34.0,28.5,30.17,SE,127,0.0,1.0,80,0.00,,,0.00,Wunderground v.1.15,2013-03-11 04:42:00,
2013-03-11 00:48:00,34.0,28.2,30.17,SE,127,0.0,1.0,79,0.00,,,0.00,Wunderground v.1.15,2013-03-11 04:48:00,
2013-03-11 00:53:00,34.2,29.0,30.17,East,96,1.0,1.0,81,0.00,,,0.00,Wunderground v.1.15,2013-03-11 04:53:00,
2013-03-11 00:59:00,34.3,28.8,30.17,East,96,0.0,1.0,80,0.00,,,0.00,Wunderground v.1.15,2013-03-11 04:59:00,
2013-03-11 01:04:00,35.1,28.6,30.17,East,89,0.0,1.0,77,0.00,,,0.00,Wunderground v.1.15,2013-03-11 05:04:00,
2013-03-11 01:09:00,35.4,28.6,30.17,East,89,0.0,0.0,76,0.00,,,0.00,Wunderground v.1.15,2013-03-11 05:09:00,
2013-03-11 01:14:00,35.4,28.6,30.17,East,91,0.0,0.0,76,0.00,,,0.00,Wunderground v.1.15,2013-03-11 05:14:00,
2013-03-11 01:20:00,35.5,29.3,30.17,East,91,0.0,0.0,78,0.00,,,0.00,Wunderground v.1.15,2013-03-11 05:20:00,
2013-03-11 01:25:00,34.7,29.2,30.17,East,91,0.0,0.0,80,0.00,,,0.00,Wunderground v.1.15,2013-03-11 05:25:00,
2013-03-11 01:30:00,34.1,29.2,30.16,East,91,0.0,0.0,82,0.00,,,0.00,Wunderground v.1.15,2013-03-11 05:30:00,
2013-03-11 01:35:00,33.9,29.3,30.17,East,90,0.0,0.0,83,0.00,,,0.00,Wunderground v.1.15,2013-03-11 05:35:00,
2013-03-11 01:40:00,33.8,29.5,30.16,East,90,1.0,1.0,84,0.00,,,0.00,Wunderground v.1.15,2013-03-11 05:40:00,
2013-03-11 01:46:00,33.5,29.2,30.16,East,90,0.0,1.0,84,0.00,,,0.00,Wunderground v.1.15,2013-03-11 05:46:00,
2013-03-11 01:52:00,33.4,29.1,30.16,East,91,1.0,1.0,84,0.00,,,0.00,Wunderground v.1.15,2013-03-11 05:52:00,
2013-03-11 01:58:00,33.9,28.7,30.15,ESE,112,3.0,3.0,81,0.00,,,0.00,Wunderground v.1.15,2013-03-11 05:58:00,
2013-03-11 02:03:00,35.4,28.6,30.14,East,86,2.0,3.0,76,0.00,,,0.00,Wunderground v.1.15,2013-03-11 06:03:00,
2013-03-11 02:08:00,35.7,28.9,30.14,East,99,1.0,3.0,76,0.00,,,0.00,Wunderground v.1.15,2013-03-11 06:08:00,
2013-03-11 02:13:00,36.2,28.0,30.14,ESE,117,2.0,2.0,72,0.00,,,0.00,Wunderground v.1.15,2013-03-11 06:13:00,
2013-03-11 02:18:00,35.6,27.8,30.14,ENE,75,2.0,2.0,73,0.00,,,0.00,Wunderground v.1.15,2013-03-11 06:18:00,
2013-03-11 02:23:00,36.5,28.0,30.14,ESE,110,3.0,5.0,71,0.00,,,0.00,Wunderground v.1.15,2013-03-11 06:23:00,
2013-03-11 02:28:00,37.3,28.1,30.14,ESE,113,4.0,5.0,69,0.00,,,0.00,Wunderground v.1.15,2013-03-11 06:28:00,
2013-03-11 02:34:00,37.9,27.9,30.14,ESE,122,4.0,6.0,67,0.00,,,0.00,Wunderground v.1.15,2013-03-11 06:34:00,
2013-03-11 02:39:00,38.0,28.0,30.14,East,81,2.0,3.0,67,0.00,,,0.00,Wunderground v.1.15,2013-03-11 06:39:00,
2013-03-11 02:44:00,37.7,28.4,30.14,East,81,2.0,4.0,69,0.00,,,0.00,Wunderground v.1.15,2013-03-11 06:44:00,
2013-03-11 02:49:00,37.4,27.8,30.14,East,82,2.0,3.0,68,0.00,,,0.00,Wunderground v.1.15,2013-03-11 06:49:00,
2013-03-11 02:54:00,36.8,27.9,30.13,East,100,4.0,4.0,70,0.00,,,0.00,Wunderground v.1.15,2013-03-11 06:54:00,
2013-03-11 02:59:00,37.2,28.0,30.13,ESE,102,3.0,3.0,69,0.00,,,0.00,Wunderground v.1.15,2013-03-11 06:59:00,
2013-03-11 03:04:00,37.5,28.2,30.12,ESE,122,4.0,5.0,69,0.00,,,0.00,Wunderground v.1.15,2013-03-11 07:04:00,
2013-03-11 03:09:00,37.9,27.9,30.12,East,82,2.0,3.0,67,0.00,,,0.00,Wunderground v.1.15,2013-03-11 07:09:00,
2013-03-11 03:14:00,38.3,28.3,30.13,ESE,122,2.0,7.0,67,0.00,,,0.00,Wunderground v.1.15,2013-03-11 07:14:00,
2013-03-11 03:19:00,37.9,28.3,30.12,East,94,3.0,3.0,68,0.00,,,0.00,Wunderground v.1.15,2013-03-11 07:19:00,
2013-03-11 03:24:00,37.5,27.9,30.12,East,86,2.0,4.0,68,0.00,,,0.00,Wunderground v.1.15,2013-03-11 07:24:00,
2013-03-11 03:29:00,37.4,28.2,30.12,East,88,3.0,3.0,69,0.00,,,0.00,Wunderground v.1.15,2013-03-11 07:29:00,
2013-03-11 03:34:00,37.1,27.9,30.12,East,93,2.0,4.0,69,0.00,,,0.00,Wunderground v.1.15,2013-03-11 07:34:00,
2013-03-11 03:39:00,36.4,28.2,30.11,East,90,0.0,2.0,72,0.00,,,0.00,Wunderground v.1.15,2013-03-11 07:39:00,
2013-03-11 03:44:00,35.4,28.3,30.11,East,93,1.0,2.0,75,0.00,,,0.00,Wunderground v.1.15,2013-03-11 07:44:00,
2013-03-11 03:49:00,35.0,27.5,30.11,NE,53,0.0,0.0,74,0.00,,,0.00,Wunderground v.1.15,2013-03-11 07:49:00,
2013-03-11 03:54:00,34.7,27.9,30.10,SE,129,1.0,2.0,76,0.00,,,0.00,Wunderground v.1.15,2013-03-11 07:54:00,
2013-03-11 03:59:00,33.3,27.5,30.10,East,96,2.0,2.0,79,0.00,,,0.00,Wunderground v.1.15,2013-03-11 07:59:00,
2013-03-11 04:04:00,34.5,28.0,30.10,SE,136,2.0,4.0,77,0.00,,,0.00,Wunderground v.1.15,2013-03-11 08:04:00,
2013-03-11 04:09:00,35.3,27.8,30.10,ESE,114,1.0,2.0,74,0.00,,,0.00,Wunderground v.1.15,2013-03-11 08:09:00,
2013-03-11 04:14:00,36.0,27.8,30.10,SSE,152,0.0,3.0,72,0.00,,,0.00,Wunderground v.1.15,2013-03-11 08:14:00,
2013-03-11 04:19:00,35.5,28.0,30.10,SSE,153,0.0,1.0,74,0.00,,,0.00,Wunderground v.1.15,2013-03-11 08:19:00,
2013-03-11 04:24:00,34.3,27.8,30.09,SSE,152,0.0,1.0,77,0.00,,,0.00,Wunderground v.1.15,2013-03-11 08:24:00,
2013-03-11 04:29:00,33.0,27.5,30.09,SSE,152,0.0,0.0,80,0.00,,,0.00,Wunderground v.1.15,2013-03-11 08:29:00,
2013-03-11 04:34:00,33.6,27.8,30.09,NE,47,2.0,2.0,79,0.00,,,0.00,Wunderground v.1.15,2013-03-11 08:34:00,
2013-03-11 04:39:00,33.8,28.0,30.10,SSE,160,0.0,0.0,79,0.00,,,0.00,Wunderground v.1.15,2013-03-11 08:39:00,
2013-03-11 04:44:00,33.0,27.5,30.10,SSE,159,0.0,0.0,80,0.00,,,0.00,Wunderground v.1.15,2013-03-11 08:44:00,
2013-03-11 04:49:00,32.1,27.2,30.10,SSE,152,0.0,0.0,82,0.00,,,0.00,Wunderground v.1.15,2013-03-11 08:49:00,
2013-03-11 04:54:00,32.1,27.2,30.10,NE,34,0.0,1.0,82,0.00,,,0.00,Wunderground v.1.15,2013-03-11 08:54:00,
2013-03-11 04:59:00,31.7,27.1,30.10,ENE,58,1.0,1.0,83,0.00,,,0.00,Wunderground v.1.15,2013-03-11 08:59:00,
2013-03-11 05:04:00,31.7,27.4,30.10,East,96,2.0,2.0,84,0.00,,,0.00,Wunderground v.1.15,2013-03-11 09:04:00,
2013-03-11 05:09:00,32.4,27.8,30.09,SE,132,2.0,4.0,83,0.00,,,0.00,Wunderground v.1.15,2013-03-11 09:09:00,
2013-03-11 05:14:00,33.4,27.9,30.10,SE,142,0.0,4.0,80,0.00,,,0.00,Wunderground v.1.15,2013-03-11 09:14:00,
2013-03-11 05:19:00,33.4,27.9,30.11,SE,146,0.0,1.0,80,0.00,,,0.00,Wunderground v.1.15,2013-03-11 09:19:00,
2013-03-11 05:24:00,32.8,27.6,30.10,SE,132,0.0,1.0,81,0.00,,,0.00,Wunderground v.1.15,2013-03-11 09:24:00,
2013-03-11 05:29:00,33.1,27.9,30.10,ESE,103,1.0,1.0,81,0.00,,,0.00,Wunderground v.1.15,2013-03-11 09:29:00,
2013-03-11 05:34:00,33.7,27.9,30.10,SE,126,0.0,1.0,79,0.00,,,0.00,Wunderground v.1.15,2013-03-11 09:34:00,
2013-03-11 05:39:00,33.7,27.9,30.10,SE,126,0.0,0.0,79,0.00,,,0.00,Wunderground v.1.15,2013-03-11 09:39:00,
2013-03-11 05:44:00,33.3,28.1,30.09,ESE,117,1.0,5.0,81,0.00,,,0.00,Wunderground v.1.15,2013-03-11 09:44:00,
2013-03-11 05:49:00,33.8,28.3,30.09,SE,129,1.0,1.0,80,0.00,,,0.00,Wunderground v.1.15,2013-03-11 09:49:00,
2013-03-11 05:54:00,34.0,28.5,30.09,East,97,0.0,1.0,80,0.00,,,0.00,Wunderground v.1.15,2013-03-11 09:54:00,
2013-03-11 06:00:00,33.7,28.2,30.09,WSW,249,0.0,1.0,80,0.00,,,0.00,Wunderground v.1.15,2013-03-11 10:00:00,
2013-03-11 06:05:00,33.4,28.2,30.10,WNW,291,0.0,1.0,81,0.00,,,0.00,Wunderground v.1.15,2013-03-11 10:05:00,
2013-03-11 06:10:00,33.3,28.1,30.10,SSE,158,1.0,1.0,81,0.00,,,0.00,Wunderground v.1.15,2013-03-11 10:10:00,
2013-03-11 06:15:00,32.8,27.9,30.10,SSE,157,0.0,1.0,82,0.00,,,0.00,Wunderground v.1.15,2013-03-11 10:15:00,
2013-03-11 06:20:00,32.4,27.5,30.10,SSE,157,0.0,0.0,82,0.00,,,0.00,Wunderground v.1.15,2013-03-11 10:20:00,
2013-03-11 06:25:00,32.1,27.5,30.10,SSE,157,0.0,0.0,83,0.00,,,0.00,Wunderground v.1.15,2013-03-11 10:25:00,
2013-03-11 06:30:00,32.0,27.7,30.10,SSE,158,0.0,0.0,84,0.00,,,0.00,Wunderground v.1.15,2013-03-11 10:30:00,
2013-03-11 06:35:00,31.9,27.9,30.10,SSE,158,0.0,0.0,85,0.00,,,0.00,Wunderground v.1.15,2013-03-11 10:35:00,
2013-03-11 06:40:00,31.6,27.9,30.10,SSE,158,1.0,1.0,86,0.00,,,0.00,Wunderground v.1.15,2013-03-11 10:40:00,
2013-03-11 06:45:00,31.3,27.6,30.09,SSE,157,0.0,1.0,86,0.00,,,0.00,Wunderground v.1.15,2013-03-11 10:45:00,
2013-03-11 06:50:00,31.1,27.7,30.09,SSE,157,0.0,0.0,87,0.00,,,0.00,Wunderground v.1.15,2013-03-11 10:50:00,
2013-03-11 06:55:00,31.0,27.6,30.09,SSE,158,0.0,0.0,87,0.00,,,0.00,Wunderground v.1.15,2013-03-11 10:55:00,
2013-03-11 07:00:00,30.9,27.8,30.09,SSE,157,0.0,0.0,88,0.00,,,0.00,Wunderground v.1.15,2013-03-11 11:00:00,
2013-03-11 07:05:00,30.7,27.6,30.09,SSE,157,0.0,0.0,88,0.00,,,0.00,Wunderground v.1.15,2013-03-11 11:05:00,
2013-03-11 07:10:00,30.6,27.5,30.09,SSE,157,0.0,0.0,88,0.00,,,0.00,Wunderground v.1.15,2013-03-11 11:10:00,
2013-03-11 07:15:00,30.4,27.3,30.09,SSE,157,0.0,0.0,88,0.00,,,0.00,Wunderground v.1.15,2013-03-11 11:15:00,
2013-03-11 07:20:00,30.3,27.2,30.09,SSE,157,0.0,0.0,88,0.00,,,0.00,Wunderground v.1.15,2013-03-11 11:20:00,
2013-03-11 07:25:00,30.0,27.2,30.09,SSE,158,0.0,0.0,89,0.00,,,0.00,Wunderground v.1.15,2013-03-11 11:25:00,
2013-03-11 07:30:00,30.0,27.2,30.09,SSE,157,0.0,0.0,89,0.00,,,0.00,Wunderground v.1.15,2013-03-11 11:30:00,
2013-03-11 07:35:00,30.1,27.3,30.09,SSE,158,0.0,0.0,89,0.00,,,0.00,Wunderground v.1.15,2013-03-11 11:35:00,
2013-03-11 07:40:00,30.0,27.2,30.09,SSE,157,0.0,0.0,89,0.00,,,0.00,Wunderground v.1.15,2013-03-11 11:40:00,
2013-03-11 07:45:00,29.8,27.0,30.09,SSE,157,0.0,0.0,89,0.00,,,0.00,Wunderground v.1.15,2013-03-11 11:45:00,
2013-03-11 07:51:00,29.7,27.1,30.09,SSE,157,0.0,0.0,90,0.00,,,0.00,Wunderground v.1.15,2013-03-11 11:51:00,
2013-03-11 07:56:00,29.8,27.2,30.09,SSE,157,0.0,0.0,90,0.00,,,0.00,Wunderground v.1.15,2013-03-11 11:56:00,
2013-03-11 08:02:00,29.8,27.2,30.08,SSE,157,0.0,0.0,90,0.00,,,0.00,Wunderground v.1.15,2013-03-11 12:02:00,
2013-03-11 08:07:00,29.8,27.2,30.08,SSE,157,0.0,0.0,90,0.00,,,0.00,Wunderground v.1.15,2013-03-11 12:07:00,
2013-03-11 08:12:00,30.1,27.5,30.08,SSE,157,0.0,0.0,90,0.00,,,0.00,Wunderground v.1.15,2013-03-11 12:12:00,
2013-03-11 08:17:00,30.5,27.9,30.09,South,173,0.0,0.0,90,0.00,,,0.00,Wunderground v.1.15,2013-03-11 12:17:00,
2013-03-11 08:22:00,31.3,28.2,30.08,SSE,149,3.0,3.0,88,0.00,,,0.00,Wunderground v.1.15,2013-03-11 12:22:00,
2013-03-11 08:27:00,33.3,28.7,30.08,SE,139,0.0,4.0,83,0.00,,,0.00,Wunderground v.1.15,2013-03-11 12:27:00,
2013-03-11 08:32:00,34.0,28.8,30.08,South,172,4.0,6.0,81,0.00,,,0.00,Wunderground v.1.15,2013-03-11 12:32:00,
2013-03-11 08:37:00,35.1,28.9,30.08,SSE,151,0.0,6.0,78,0.00,,,0.00,Wunderground v.1.15,2013-03-11 12:37:00,
2013-03-11 08:42:00,35.8,28.3,30.08,ESE,109,2.0,5.0,74,0.00,,,0.00,Wunderground v.1.15,2013-03-11 12:42:00,
2013-03-11 08:47:00,36.8,28.3,30.08,ESE,108,3.0,8.0,71,0.00,,,0.00,Wunderground v.1.15,2013-03-11 12:47:00,
2013-03-11 08:52:00,37.6,28.0,30.07,East,85,5.0,7.0,68,0.00,,,0.00,Wunderground v.1.15,2013-03-11 12:52:00,
2013-03-11 08:57:00,38.4,28.0,30.08,ENE,77,1.0,8.0,66,0.00,,,0.00,Wunderground v.1.15,2013-03-11 12:57:00,
2013-03-11 09:02:00,38.9,28.5,30.08,ESE,119,1.0,5.0,66,0.00,,,0.00,Wunderground v.1.15,2013-03-11 13:02:00,
2013-03-11 09:08:00,39.1,27.9,30.08,SE,129,2.0,6.0,64,0.00,,,0.00,Wunderground v.1.15,2013-03-11 13:08:00,
2013-03-11 09:13:00,39.3,28.1,30.08,SE,126,1.0,3.0,64,0.00,,,0.00,Wunderground v.1.15,2013-03-11 13:13:00,
2013-03-11 09:18:00,39.6,28.0,30.09,SSE,150,0.0,3.0,63,0.00,,,0.00,Wunderground v.1.15,2013-03-11 13:18:00,
2013-03-11 09:23:00,39.8,27.8,30.09,South,181,0.0,2.0,62,0.00,,,0.00,Wunderground v.1.15,2013-03-11 13:23:00,
2013-03-11 09:28:00,40.2,28.2,30.08,South,186,0.0,2.0,62,0.00,,,0.00,Wunderground v.1.15,2013-03-11 13:28:00,
2013-03-11 09:33:00,40.6,28.2,30.08,SSW,205,0.0,1.0,61,0.00,,,0.00,Wunderground v.1.15,2013-03-11 13:33:00,
2013-03-11 09:39:00,41.2,28.8,30.08,SSE,164,0.0,1.0,61,0.00,,,0.00,Wunderground v.1.15,2013-03-11 13:39:00,
2013-03-11 09:44:00,41.4,28.5,30.08,South,177,1.0,3.0,60,0.00,,,0.00,Wunderground v.1.15,2013-03-11 13:44:00,
2013-03-11 09:49:00,41.4,28.5,30.08,SE,132,2.0,2.0,60,0.00,,,0.00,Wunderground v.1.15,2013-03-11 13:49:00,
2013-03-11 09:54:00,41.4,28.5,30.08,South,169,3.0,5.0,60,0.00,,,0.00,Wunderground v.1.15,2013-03-11 13:54:00,
2013-03-11 09:59:00,41.3,28.4,30.08,SSE,147,0.0,2.0,60,0.00,,,0.00,Wunderground v.1.15,2013-03-11 13:59:00,
2013-03-11 10:04:00,41.2,28.4,30.09,South,186,3.0,5.0,60,0.00,,,0.00,Wunderground v.1.15,2013-03-11 14:04:00,
2013-03-11 10:09:00,41.6,28.7,30.09,SSE,158,0.0,1.0,60,0.00,,,0.00,Wunderground v.1.15,2013-03-11 14:09:00,
2013-03-11 10:14:00,42.2,28.9,30.09,SW,226,0.0,2.0,59,0.00,,,0.00,Wunderground v.1.15,2013-03-11 14:14:00,
2013-03-11 10:19:00,42.4,28.7,30.09,South,170,5.0,5.0,58,0.00,,,0.00,Wunderground v.1.15,2013-03-11 14:19:00,
2013-03-11 10:24:00,42.2,28.9,30.09,SSW,200,1.0,5.0,59,0.00,,,0.00,Wunderground v.1.15,2013-03-11 14:24:00,
2013-03-11 10:29:00,42.2,28.9,30.09,SSW,213,4.0,4.0,59,0.00,,,0.00,Wunderground v.1.15,2013-03-11 14:29:00,
2013-03-11 10:34:00,42.2,29.3,30.09,South,181,2.0,5.0,60,0.00,,,0.00,Wunderground v.1.15,2013-03-11 14:34:00,
2013-03-11 10:39:00,42.4,29.1,30.09,SE,139,1.0,3.0,59,0.00,,,0.00,Wunderground v.1.15,2013-03-11 14:39:00,
2013-03-11 10:45:00,42.6,29.3,30.09,East,100,0.0,3.0,59,0.00,,,0.00,Wunderground v.1.15,2013-03-11 14:45:00,
2013-03-11 10:50:00,42.7,29.4,30.08,SW,217,0.0,2.0,59,0.00,,,0.00,Wunderground v.1.15,2013-03-11 14:50:00,
2013-03-11 10:55:00,42.8,29.5,30.08,SE,140,1.0,2.0,59,0.00,,,0.00,Wunderground v.1.15,2013-03-11 14:55:00,
2013-03-11 11:00:00,42.9,29.1,30.08,SW,224,3.0,3.0,58,0.00,,,0.00,Wunderground v.1.15,2013-03-11 15:00:00,
2013-03-11 11:05:00,42.8,29.5,30.08,SW,235,2.0,5.0,59,0.00,,,0.00,Wunderground v.1.15,2013-03-11 15:05:00,
2013-03-11 11:10:00,42.8,29.0,30.08,SSE,157,2.0,4.0,58,0.00,,,0.00,Wunderground v.1.15,2013-03-11 15:10:00,
2013-03-11 11:15:00,43.2,29.4,30.08,SSE,164,4.0,5.0,58,0.00,,,0.00,Wunderground v.1.15,2013-03-11 15:15:00,
2013-03-11 11:20:00,43.2,29.4,30.08,SSE,148,4.0,9.0,58,0.00,,,0.00,Wunderground v.1.15,2013-03-11 15:20:00,
2013-03-11 11:25:00,43.3,29.5,30.08,East,100,2.0,9.0,58,0.00,,,0.00,Wunderground v.1.15,2013-03-11 15:25:00,
2013-03-11 11:31:00,43.4,29.2,30.08,SSE,155,0.0,4.0,57,0.00,,,0.00,Wunderground v.1.15,2013-03-11 15:31:00,
2013-03-11 11:36:00,43.7,29.5,30.07,SSE,151,4.0,6.0,57,0.00,,,0.00,Wunderground v.1.15,2013-03-11 15:36:00,
2013-03-11 11:41:00,43.5,28.8,30.07,ENE,75,4.0,6.0,56,0.00,,,0.00,Wunderground v.1.15,2013-03-11 15:41:00,
2013-03-11 11:46:00,43.5,29.3,30.07,East,88,6.0,7.0,57,0.00,,,0.00,Wunderground v.1.15,2013-03-11 15:46:00,
2013-03-11 11:51:00,43.5,29.3,30.07,East,80,2.0,5.0,57,0.00,,,0.00,Wunderground v.1.15,2013-03-11 15:51:00,
2013-03-11 11:57:00,43.7,29.0,30.07,East,81,2.0,7.0,56,0.00,,,0.00,Wunderground v.1.15,2013-03-11 15:57:00,
2013-03-11 12:02:00,44.0,29.3,30.08,ESE,118,1.0,3.0,56,0.00,,,0.00,Wunderground v.1.15,2013-03-11 16:02:00,
2013-03-11 12:07:00,44.4,29.7,30.08,South,190,1.0,4.0,56,0.00,,,0.00,Wunderground v.1.15,2013-03-11 16:07:00,
2013-03-11 12:12:00,44.6,29.4,30.09,SSE,149,3.0,4.0,55,0.00,,,0.00,Wunderground v.1.15,2013-03-11 16:12:00,
2013-03-11 12:17:00,44.8,29.6,30.08,East,93,0.0,4.0,55,0.00,,,0.00,Wunderground v.1.15,2013-03-11 16:17:00,
2013-03-11 12:22:00,45.0,29.8,30.08,South,169,2.0,4.0,55,0.00,,,0.00,Wunderground v.1.15,2013-03-11 16:22:00,
2013-03-11 12:27:00,45.1,29.0,30.08,SE,145,5.0,7.0,53,0.00,,,0.00,Wunderground v.1.15,2013-03-11 16:27:00,
2013-03-11 12:32:00,45.0,29.3,30.08,East,96,5.0,5.0,54,0.00,,,0.00,Wunderground v.1.15,2013-03-11 16:32:00,
2013-03-11 12:37:00,44.9,29.2,30.07,NE,55,1.0,7.0,54,0.00,,,0.00,Wunderground v.1.15,2013-03-11 16:37:00,
2013-03-11 12:42:00,45.0,29.3,30.07,SE,130,3.0,5.0,54,0.00,,,0.00,Wunderground v.1.15,2013-03-11 16:42:00,
2013-03-11 12:48:00,45.0,29.3,30.07,ESE,121,2.0,5.0,54,0.00,,,0.00,Wunderground v.1.15,2013-03-11 16:48:00,
2013-03-11 12:53:00,45.2,29.5,30.07,SE,129,4.0,6.0,54,0.00,,,0.00,Wunderground v.1.15,2013-03-11 16:53:00,
2013-03-11 12:58:00,45.1,29.4,30.07,ESE,119,1.0,6.0,54,0.00,,,0.00,Wunderground v.1.15,2013-03-11 16:58:00,
2013-03-11 13:03:00,45.1,29.4,30.07,ESE,119,3.0,6.0,54,0.00,,,0.00,Wunderground v.1.15,2013-03-11 17:03:00,
2013-03-11 13:08:00,45.3,29.6,30.07,SSE,155,2.0,6.0,54,0.00,,,0.00,Wunderground v.1.15,2013-03-11 17:08:00,
2013-03-11 13:13:00,45.9,29.7,30.07,ESE,108,0.0,5.0,53,0.00,,,0.00,Wunderground v.1.15,2013-03-11 17:13:00,
2013-03-11 13:18:00,46.3,29.6,30.06,East,88,3.0,5.0,52,0.00,,,0.00,Wunderground v.1.15,2013-03-11 17:18:00,
2013-03-11 13:23:00,46.9,29.7,30.06,ESE,119,1.0,3.0,51,0.00,,,0.00,Wunderground v.1.15,2013-03-11 17:23:00,
2013-03-11 13:28:00,47.3,29.6,30.06,East,79,0.0,3.0,50,0.00,,,0.00,Wunderground v.1.15,2013-03-11 17:28:00,
2013-03-11 13:33:00,47.6,29.4,30.06,ESE,119,4.0,4.0,49,0.00,,,0.00,Wunderground v.1.15,2013-03-11 17:33:00,
2013-03-11 13:38:00,47.9,29.6,30.05,ESE,110,3.0,4.0,49,0.00,,,0.00,Wunderground v.1.15,2013-03-11 17:38:00,
2013-03-11 13:44:00,48.1,28.3,30.05,ESE,115,2.0,4.0,46,0.00,,,0.00,Wunderground v.1.15,2013-03-11 17:44:00,
2013-03-11 13:49:00,48.5,28.6,30.05,East,98,4.0,4.0,46,0.00,,,0.00,Wunderground v.1.15,2013-03-11 17:49:00,
2013-03-11 13:54:00,48.2,28.4,30.05,East,99,5.0,5.0,46,0.00,,,0.00,Wunderground v.1.15,2013-03-11 17:54:00,
2013-03-11 13:59:00,48.2,28.4,30.05,South,177,2.0,4.0,46,0.00,,,0.00,Wunderground v.1.15,2013-03-11 17:59:00,
2013-03-11 14:04:00,48.2,28.9,30.05,SSE,150,4.0,9.0,47,0.00,,,0.00,Wunderground v.1.15,2013-03-11 18:04:00,
2013-03-11 14:09:00,47.9,28.6,30.05,ENE,72,3.0,4.0,47,0.00,,,0.00,Wunderground v.1.15,2013-03-11 18:09:00,
2013-03-11 14:14:00,47.8,28.5,30.05,SSE,167,2.0,7.0,47,0.00,,,0.00,Wunderground v.1.15,2013-03-11 18:14:00,
2013-03-11 14:19:00,47.8,28.5,30.05,SE,139,1.0,4.0,47,0.00,,,0.00,Wunderground v.1.15,2013-03-11 18:19:00,
2013-03-11 14:24:00,47.8,28.5,30.05,ENE,77,4.0,4.0,47,0.00,,,0.00,Wunderground v.1.15,2013-03-11 18:24:00,
2013-03-11 14:29:00,47.6,28.3,30.04,South,181,6.0,7.0,47,0.00,,,0.00,Wunderground v.1.15,2013-03-11 18:29:00,
2013-03-11 14:34:00,47.5,28.3,30.04,ESE,122,5.0,7.0,47,0.00,,,0.00,Wunderground v.1.15,2013-03-11 18:34:00,
2013-03-11 14:39:00,47.4,27.6,30.04,East,93,2.0,4.0,46,0.00,,,0.00,Wunderground v.1.15,2013-03-11 18:39:00,
2013-03-11 14:44:00,47.5,27.7,30.04,SSE,151,4.0,6.0,46,0.00,,,0.00,Wunderground v.1.15,2013-03-11 18:44:00,
2013-03-11 14:49:00,47.7,27.9,30.04,East,100,2.0,3.0,46,0.00,,,0.00,Wunderground v.1.15,2013-03-11 18:49:00,
2013-03-11 14:54:00,47.9,27.6,30.03,SE,136,3.0,6.0,45,0.00,,,0.00,Wunderground v.1.15,2013-03-11 18:54:00,
2013-03-11 15:00:00,48.2,27.8,30.03,ESE,119,3.0,3.0,45,0.00,,,0.00,Wunderground v.1.15,2013-03-11 19:00:00,
2013-03-11 15:05:00,48.2,28.4,30.03,SE,134,1.0,4.0,46,0.00,,,0.00,Wunderground v.1.15,2013-03-11 19:05:00,
2013-03-11 15:10:00,48.2,27.3,30.03,SSE,148,5.0,5.0,44,0.00,,,0.00,Wunderground v.1.15,2013-03-11 19:10:00,
2013-03-11 15:15:00,48.2,27.3,30.03,East,93,1.0,8.0,44,0.00,,,0.00,Wunderground v.1.15,2013-03-11 19:15:00,
2013-03-11 15:20:00,48.1,27.7,30.03,SE,132,4.0,8.0,45,0.00,,,0.00,Wunderground v.1.15,2013-03-11 19:20:00,
2013-03-11 15:25:00,47.7,27.9,30.02,ESE,108,3.0,8.0,46,0.00,,,0.00,Wunderground v.1.15,2013-03-11 19:25:00,
2013-03-11 15:30:00,47.6,27.8,30.02,South,172,2.0,6.0,46,0.00,,,0.00,Wunderground v.1.15,2013-03-11 19:30:00,
2013-03-11 15:35:00,47.7,27.4,30.02,ENE,71,2.0,7.0,45,0.00,,,0.00,Wunderground v.1.15,2013-03-11 19:35:00,
2013-03-11 15:40:00,47.7,27.9,30.03,SE,126,4.0,6.0,46,0.00,,,0.00,Wunderground v.1.15,2013-03-11 19:40:00,
2013-03-11 15:45:00,47.6,27.3,30.03,East,91,5.0,7.0,45,0.00,,,0.00,Wunderground v.1.15,2013-03-11 19:45:00,
2013-03-11 15:50:00,47.5,27.2,30.03,SE,136,2.0,6.0,45,0.00,,,0.00,Wunderground v.1.15,2013-03-11 19:50:00,
2013-03-11 15:55:00,47.5,27.2,30.02,East,84,4.0,9.0,45,0.00,,,0.00,Wunderground v.1.15,2013-03-11 19:55:00,
2013-03-11 16:00:00,47.3,27.0,30.02,SSE,155,5.0,5.0,45,0.00,,,0.00,Wunderground v.1.15,2013-03-11 20:00:00,
2013-03-11 16:05:00,47.1,27.4,30.02,ESE,121,4.0,8.0,46,0.00,,,0.00,Wunderground v.1.15,2013-03-11 20:05:00,
2013-03-11 16:10:00,47.0,27.3,30.02,East,85,3.0,8.0,46,0.00,,,0.00,Wunderground v.1.15,2013-03-11 20:10:00,
2013-03-11 16:15:00,46.9,27.7,30.02,ESE,108,4.0,9.0,47,0.00,,,0.00,Wunderground v.1.15,2013-03-11 20:15:00,
2013-03-11 16:20:00,46.7,27.5,30.02,South,172,3.0,6.0,47,0.00,,,0.00,Wunderground v.1.15,2013-03-11 20:20:00,
2013-03-11 16:25:00,46.4,27.2,30.01,ENE,75,5.0,7.0,47,0.00,,,0.00,Wunderground v.1.15,2013-03-11 20:25:00,
2013-03-11 16:30:00,46.3,27.2,30.01,ESE,112,2.0,5.0,47,0.00,,,0.00,Wunderground v.1.15,2013-03-11 20:30:00,
2013-03-11 16:35:00,46.0,27.4,30.00,SE,129,5.0,11.0,48,0.00,,,0.00,Wunderground v.1.15,2013-03-11 20:35:00,
2013-03-11 16:40:00,45.8,27.2,30.00,ENE,70,6.0,6.0,48,0.00,,,0.00,Wunderground v.1.15,2013-03-11 20:40:00,
2013-03-11 16:45:00,45.7,27.1,30.00,East,84,5.0,9.0,48,0.00,,,0.00,Wunderground v.1.15,2013-03-11 20:45:00,
2013-03-11 16:50:00,45.5,27.4,30.00,ESE,116,5.0,8.0,49,0.00,,,0.00,Wunderground v.1.15,2013-03-11 20:50:00,
2013-03-11 16:55:00,45.1,27.6,30.00,East,95,2.0,10.0,50,0.00,,,0.00,Wunderground v.1.15,2013-03-11 20:55:00,
2013-03-11 17:00:00,44.8,27.8,30.00,SE,143,5.0,7.0,51,0.00,,,0.00,Wunderground v.1.15,2013-03-11 21:00:00,
2013-03-11 17:06:00,44.6,28.0,30.00,SE,124,4.0,8.0,52,0.00,,,0.00,Wunderground v.1.15,2013-03-11 21:06:00,
2013-03-11 17:11:00,44.3,28.7,30.00,SE,146,5.0,7.0,54,0.00,,,0.00,Wunderground v.1.15,2013-03-11 21:11:00,
2013-03-11 17:16:00,43.9,29.2,30.00,East,101,6.0,10.0,56,0.00,,,0.00,Wunderground v.1.15,2013-03-11 21:16:00,
2013-03-11 17:21:00,43.6,29.4,30.00,SE,142,4.0,9.0,57,0.00,,,0.00,Wunderground v.1.15,2013-03-11 21:21:00,
2013-03-11 17:26:00,43.7,29.0,29.99,SE,136,3.0,10.0,56,0.00,,,0.00,Wunderground v.1.15,2013-03-11 21:26:00,
2013-03-11 17:31:00,43.7,29.5,30.00,ESE,116,10.0,10.0,57,0.00,,,0.00,Wunderground v.1.15,2013-03-11 21:31:00,
2013-03-11 17:36:00,43.4,30.0,30.00,SE,141,1.0,10.0,59,0.00,,,0.00,Wunderground v.1.15,2013-03-11 21:36:00,
2013-03-11 17:41:00,42.9,30.0,29.99,ESE,105,7.0,11.0,60,0.00,,,0.00,Wunderground v.1.15,2013-03-11 21:41:00,
2013-03-11 17:46:00,42.9,30.0,29.99,East,84,8.0,11.0,60,0.00,,,0.00,Wunderground v.1.15,2013-03-11 21:46:00,
2013-03-11 17:51:00,43.0,30.1,29.99,East,98,4.0,11.0,60,0.00,,,0.00,Wunderground v.1.15,2013-03-11 21:51:00,
2013-03-11 17:56:00,42.9,30.4,30.00,SE,139,5.0,11.0,61,0.00,,,0.00,Wunderground v.1.15,2013-03-11 21:56:00,
2013-03-11 18:01:00,42.9,30.4,30.00,ESE,120,8.0,10.0,61,0.00,,,0.00,Wunderground v.1.15,2013-03-11 22:01:00,
2013-03-11 18:06:00,42.7,31.0,30.01,SE,126,4.0,10.0,63,0.00,,,0.00,Wunderground v.1.15,2013-03-11 22:06:00,
2013-03-11 18:11:00,42.2,31.3,30.01,East,96,8.0,11.0,65,0.00,,,0.00,Wunderground v.1.15,2013-03-11 22:11:00,
2013-03-11 18:16:00,41.6,31.4,30.01,SSE,167,4.0,11.0,67,0.00,,,0.00,Wunderground v.1.15,2013-03-11 22:16:00,
2013-03-11 18:21:00,41.3,31.5,30.01,SSE,162,3.0,5.0,68,0.00,,,0.00,Wunderground v.1.15,2013-03-11 22:21:00,
2013-03-11 18:26:00,41.1,31.7,30.01,ESE,117,5.0,10.0,69,0.00,,,0.00,Wunderground v.1.15,2013-03-11 22:26:00,
2013-03-11 18:31:00,41.1,31.7,30.01,SE,145,3.0,8.0,69,0.00,,,0.00,Wunderground v.1.15,2013-03-11 22:31:00,
2013-03-11 18:36:00,40.9,31.9,30.01,SE,140,3.0,8.0,70,0.00,,,0.00,Wunderground v.1.15,2013-03-11 22:36:00,
2013-03-11 18:41:00,40.9,31.5,30.02,ESE,122,2.0,6.0,69,0.00,,,0.00,Wunderground v.1.15,2013-03-11 22:41:00,
2013-03-11 18:47:00,41.1,31.7,30.01,East,98,6.0,6.0,69,0.00,,,0.00,Wunderground v.1.15,2013-03-11 22:47:00,
2013-03-11 18:52:00,41.1,31.7,30.02,SE,136,1.0,4.0,69,0.00,,,0.00,Wunderground v.1.15,2013-03-11 22:52:00,
2013-03-11 18:57:00,40.8,31.8,30.02,East,96,3.0,6.0,70,0.00,,,0.00,Wunderground v.1.15,2013-03-11 22:57:00,
2013-03-11 19:02:00,40.6,31.9,30.01,SE,140,4.0,5.0,71,0.00,,,0.00,Wunderground v.1.15,2013-03-11 23:02:00,
2013-03-11 19:07:00,40.4,32.1,30.01,ESE,122,5.0,11.0,72,0.00,,,0.00,Wunderground v.1.15,2013-03-11 23:07:00,
2013-03-11 19:12:00,40.5,32.5,30.01,SE,132,5.0,12.0,73,0.00,,,0.00,Wunderground v.1.15,2013-03-11 23:12:00,
2013-03-11 19:17:00,40.3,32.7,30.01,SSE,154,5.0,12.0,74,0.00,,,0.00,Wunderground v.1.15,2013-03-11 23:17:00,
2013-03-11 19:22:00,40.1,32.5,30.01,ESE,107,5.0,12.0,74,0.00,,,0.00,Wunderground v.1.15,2013-03-11 23:22:00,
2013-03-11 19:27:00,40.0,32.7,30.01,ESE,114,2.0,12.0,75,0.00,,,0.00,Wunderground v.1.15,2013-03-11 23:27:00,
2013-03-11 19:32:00,39.8,32.5,30.01,SE,144,2.0,7.0,75,0.00,,,0.00,Wunderground v.1.15,2013-03-11 23:32:00,
2013-03-11 19:37:00,39.7,32.8,30.01,East,98,5.0,7.0,76,0.00,,,0.00,Wunderground v.1.15,2013-03-11 23:37:00,
2013-03-11 19:42:00,39.7,32.8,30.00,ESE,122,8.0,8.0,76,0.00,,,0.00,Wunderground v.1.15,2013-03-11 23:42:00,
2013-03-11 19:47:00,39.9,32.9,30.00,SE,146,5.0,8.0,76,0.00,,,0.00,Wunderground v.1.15,2013-03-11 23:47:00,
2013-03-11 19:52:00,39.8,32.8,30.00,ESE,105,6.0,7.0,76,0.00,,,0.00,Wunderground v.1.15,2013-03-11 23:52:00,
2013-03-11 19:57:00,39.9,32.9,30.00,ESE,115,2.0,9.0,76,0.00,,,0.00,Wunderground v.1.15,2013-03-11 23:57:00,
2013-03-11 20:02:00,40.0,33.0,30.00,SSE,155,2.0,7.0,76,0.00,,,0.00,Wunderground v.1.15,2013-03-12 00:02:00,
2013-03-11 20:07:00,40.0,32.7,30.00,East,82,6.0,8.0,75,0.00,,,0.00,Wunderground v.1.15,2013-03-12 00:07:00,
2013-03-11 20:12:00,40.2,32.9,30.00,SSE,149,9.0,9.0,75,0.00,,,0.00,Wunderground v.1.15,2013-03-12 00:12:00,
2013-03-11 20:18:00,40.3,33.0,30.00,ESE,102,1.0,9.0,75,0.00,,,0.00,Wunderground v.1.15,2013-03-12 00:18:00,
2013-03-11 20:23:00,40.3,33.0,30.01,SSE,148,1.0,5.0,75,0.00,,,0.00,Wunderground v.1.15,2013-03-12 00:23:00,
2013-03-11 20:28:00,40.4,32.8,30.01,East,93,5.0,8.0,74,0.00,,,0.00,Wunderground v.1.15,2013-03-12 00:28:00,
2013-03-11 20:33:00,40.6,33.0,30.01,SE,141,2.0,5.0,74,0.00,,,0.00,Wunderground v.1.15,2013-03-12 00:33:00,
2013-03-11 20:38:00,40.6,33.0,30.01,ESE,104,2.0,5.0,74,0.00,,,0.00,Wunderground v.1.15,2013-03-12 00:38:00,
2013-03-11 20:43:00,40.5,32.5,30.01,ESE,112,1.0,3.0,73,0.00,,,0.00,Wunderground v.1.15,2013-03-12 00:43:00,
2013-03-11 20:48:00,40.3,32.7,30.01,East,94,0.0,3.0,74,0.00,,,0.00,Wunderground v.1.15,2013-03-12 00:48:00,
2013-03-11 20:53:00,40.4,32.8,30.00,North,359,2.0,3.0,74,0.00,,,0.00,Wunderground v.1.15,2013-03-12 00:53:00,
2013-03-11 20:58:00,40.1,32.5,30.00,North,9,0.0,3.0,74,0.00,,,0.00,Wunderground v.1.15,2013-03-12 00:58:00,
2013-03-11 21:03:00,40.1,32.8,30.00,SSE,150,0.0,5.0,75,0.00,,,0.00,Wunderground v.1.15,2013-03-12 01:03:00,
2013-03-11 21:08:00,40.3,33.0,30.00,NNE,25,3.0,7.0,75,0.00,,,0.00,Wunderground v.1.15,2013-03-12 01:08:00,
2013-03-11 21:13:00,40.1,32.8,30.00,East,89,2.0,4.0,75,0.00,,,0.00,Wunderground v.1.15,2013-03-12 01:13:00,
2013-03-11 21:18:00,40.3,32.7,30.00,SSE,159,3.0,5.0,74,0.00,,,0.00,Wunderground v.1.15,2013-03-12 01:18:00,
2013-03-11 21:23:00,40.4,32.8,30.00,ESE,102,5.0,7.0,74,0.00,,,0.00,Wunderground v.1.15,2013-03-12 01:23:00,
2013-03-11 21:28:00,40.6,33.0,30.00,East,89,9.0,12.0,74,0.00,,,0.00,Wunderground v.1.15,2013-03-12 01:28:00,
2013-03-11 21:33:00,40.8,32.8,30.00,SE,139,4.0,9.0,73,0.00,,,0.00,Wunderground v.1.15,2013-03-12 01:33:00,
2013-03-11 21:38:00,40.7,33.1,29.99,SSE,162,2.0,11.0,74,0.00,,,0.00,Wunderground v.1.15,2013-03-12 01:38:00,
2013-03-11 21:43:00,40.6,33.3,30.00,ESE,123,5.0,10.0,75,0.00,,,0.00,Wunderground v.1.15,2013-03-12 01:43:00,
2013-03-11 21:48:00,40.5,33.5,29.99,ESE,102,3.0,12.0,76,0.00,,,0.00,Wunderground v.1.15,2013-03-12 01:48:00,
2013-03-11 21:54:00,40.4,33.8,29.99,SE,126,9.0,10.0,77,0.00,,,0.00,Wunderground v.1.15,2013-03-12 01:54:00,
2013-03-11 21:59:00,40.3,33.7,29.99,ESE,109,5.0,6.0,77,0.00,,,0.00,Wunderground v.1.15,2013-03-12 01:59:00,
2013-03-11 22:04:00,40.0,33.7,29.99,SE,127,2.0,9.0,78,0.00,,,0.00,Wunderground v.1.15,2013-03-12 02:04:00,
2013-03-11 22:09:00,40.0,33.7,29.99,ESE,108,4.0,5.0,78,0.00,,,0.00,Wunderground v.1.15,2013-03-12 02:09:00,
2013-03-11 22:14:00,40.0,33.7,29.99,SSE,148,5.0,8.0,78,0.00,,,0.00,Wunderground v.1.15,2013-03-12 02:14:00,
2013-03-11 22:19:00,40.0,33.7,29.99,East,100,2.0,4.0,78,0.00,,,0.00,Wunderground v.1.15,2013-03-12 02:19:00,
2013-03-11 22:24:00,39.9,33.3,29.99,East,95,6.0,8.0,77,0.00,,,0.00,Wunderground v.1.15,2013-03-12 02:24:00,
2013-03-11 22:29:00,39.9,33.3,29.99,East,93,3.0,5.0,77,0.00,,,0.00,Wunderground v.1.15,2013-03-12 02:29:00,
2013-03-11 22:34:00,39.9,32.9,29.98,ESE,116,3.0,6.0,76,0.00,,,0.00,Wunderground v.1.15,2013-03-12 02:34:00,
2013-03-11 22:39:00,40.2,33.2,29.98,ESE,114,2.0,4.0,76,0.00,,,0.00,Wunderground v.1.15,2013-03-12 02:39:00,
2013-03-11 22:44:00,40.3,33.0,29.98,ESE,120,3.0,5.0,75,0.00,,,0.00,Wunderground v.1.15,2013-03-12 02:44:00,
2013-03-11 22:49:00,40.4,33.1,29.98,ESE,109,3.0,7.0,75,0.00,,,0.00,Wunderground v.1.15,2013-03-12 02:49:00,
2013-03-11 22:54:00,40.6,33.0,29.99,East,94,2.0,7.0,74,0.00,,,0.00,Wunderground v.1.15,2013-03-12 02:54:00,
2013-03-11 22:59:00,40.5,32.9,29.99,SE,126,3.0,5.0,74,0.00,,,0.00,Wunderground v.1.15,2013-03-12 02:59:00,
2013-03-11 23:04:00,40.3,33.0,29.98,SE,128,4.0,8.0,75,0.00,,,0.00,Wunderground v.1.15,2013-03-12 03:04:00,
2013-03-11 23:09:00,40.2,33.2,29.99,ESE,110,1.0,4.0,76,0.00,,,0.00,Wunderground v.1.15,2013-03-12 03:09:00,
2013-03-11 23:14:00,40.2,33.2,29.99,SE,142,2.0,6.0,76,0.00,,,0.00,Wunderground v.1.15,2013-03-12 03:14:00,
2013-03-11 23:19:00,40.3,33.3,29.99,East,94,3.0,9.0,76,0.00,,,0.00,Wunderground v.1.15,2013-03-12 03:19:00,
2013-03-11 23:25:00,40.5,33.5,29.99,SSE,164,5.0,15.0,76,0.00,,,0.00,Wunderground v.1.15,2013-03-12 03:25:00,
2013-03-11 23:30:00,40.5,33.5,29.99,SSE,164,8.0,8.0,76,0.00,,,0.00,Wunderground v.1.15,2013-03-12 03:30:00,
2013-03-11 23:35:00,40.4,33.8,29.98,ESE,102,4.0,13.0,77,0.00,,,0.00,Wunderground v.1.15,2013-03-12 03:35:00,
2013-03-11 23:40:00,40.3,33.3,29.98,SE,142,5.0,9.0,76,0.00,,,0.00,Wunderground v.1.15,2013-03-12 03:40:00,
2013-03-11 23:45:00,40.4,33.4,29.97,East,97,8.0,14.0,76,0.00,,,0.00,Wunderground v.1.15,2013-03-12 03:45:00,
2013-03-11 23:50:00,40.4,33.4,29.97,SE,142,1.0,10.0,76,0.00,,,0.00,Wunderground v.1.15,2013-03-12 03:50:00,
2013-03-11 23:55:00,40.5,33.2,29.97,South,180,1.0,10.0,75,0.00,,,0.00,Wunderground v.1.15,2013-03-12 03:55:00,